AAL664 PHKO-KPHX
Flight info
| Callsign | AAL664 |
|---|---|
| Flight time | N/A |
| Altitude | 31000 |
| Route | KOA V5 MYNAH V11 UPP CLUTS R465 CIVIT R585 GITLE ADUMM GALIP R585 AUDIA SNAXX LAX CLEEE BLH HYDRR1 |
| Aircraft | A321/M-SDE3FGHIRWY/LB1 |
Departure
| Time | 2026-04-24 19:00 |
|---|---|
| Airport | Ellison Onizuka Kona International Airport at Keāhole (PHKO) |
Arrival
| Time | N/A |
|---|---|
| Airport | Phoenix Sky Harbor International Airport (KPHX) |
| Time | Latitude | Longitude | Altitude | Speed | Heading |
|---|---|---|---|---|---|
| 2026-04-24 18:55 | 19.73599 | -156.04237 | 50 ft | 3 kts | 138° |
| 2026-04-24 18:55 | 19.73613 | -156.04250 | 50 ft | 3 kts | 138° |
| 2026-04-24 18:56 | 19.73627 | -156.04263 | 47 ft | 3 kts | 138° |
| 2026-04-24 18:56 | 19.73641 | -156.04276 | 47 ft | 3 kts | 138° |
| 2026-04-24 18:56 | 19.73654 | -156.04289 | 46 ft | 3 kts | 138° |
| 2026-04-24 18:56 | 19.73667 | -156.04301 | 48 ft | 2 kts | 138° |
| 2026-04-24 18:57 | 19.73675 | -156.04309 | 48 ft | 0 kts | 138° |
| 2026-04-24 18:57 | 19.73671 | -156.04306 | 49 ft | 3 kts | 144° |
| 2026-04-24 18:58 | 19.73582 | -156.04322 | 50 ft | 24 kts | 191° |
| 2026-04-24 18:58 | 19.73342 | -156.04358 | 49 ft | 43 kts | 185° |
| 2026-04-24 18:58 | 19.73044 | -156.04384 | 48 ft | 42 kts | 185° |
| 2026-04-24 18:58 | 19.72755 | -156.04412 | 48 ft | 41 kts | 185° |
| 2026-04-24 18:59 | 19.72496 | -156.04437 | 46 ft | 25 kts | 185° |
| 2026-04-24 18:59 | 19.72367 | -156.04512 | 46 ft | 22 kts | 260° |
| 2026-04-24 18:59 | 19.72387 | -156.04667 | 46 ft | 21 kts | 298° |
| 2026-04-24 18:59 | 19.72521 | -156.04688 | 48 ft | 32 kts | 4° |
| 2026-04-24 19:00 | 19.73026 | -156.04646 | 49 ft | 110 kts | 4° |
| 2026-04-24 19:00 | 19.74002 | -156.04546 | 53 ft | 170 kts | 8° |
| 2026-04-24 19:00 | 19.75233 | -156.04431 | 623 ft | 185 kts | 4° |
| 2026-04-24 19:00 | 19.76585 | -156.04609 | 1145 ft | 208 kts | 334° |
| 2026-04-24 19:01 | 19.77625 | -156.05756 | 1320 ft | 234 kts | 295° |
| 2026-04-24 19:01 | 19.78005 | -156.07491 | 1675 ft | 247 kts | 278° |
| 2026-04-24 19:01 | 19.78137 | -156.09329 | 2193 ft | 252 kts | 275° |
| 2026-04-24 19:01 | 19.78252 | -156.11185 | 2722 ft | 253 kts | 275° |
| 2026-04-24 19:02 | 19.78359 | -156.12445 | 3091 ft | 253 kts | 276° |
| 2026-04-24 19:02 | 19.78651 | -156.14923 | 3686 ft | 263 kts | 278° |
| 2026-04-24 19:02 | 19.78940 | -156.16880 | 4192 ft | 271 kts | 279° |
| 2026-04-24 19:02 | 19.79268 | -156.18864 | 4855 ft | 274 kts | 281° |
| 2026-04-24 19:03 | 19.79680 | -156.20838 | 5517 ft | 275 kts | 290° |
| 2026-04-24 19:03 | 19.80666 | -156.22575 | 6142 ft | 278 kts | 314° |
| 2026-04-24 19:03 | 19.82252 | -156.23752 | 6746 ft | 281 kts | 337° |
| 2026-04-24 19:03 | 19.84170 | -156.24160 | 7340 ft | 284 kts | 2° |
| 2026-04-24 19:04 | 19.86092 | -156.23678 | 7944 ft | 287 kts | 24° |
| 2026-04-24 19:04 | 19.87906 | -156.22780 | 8555 ft | 289 kts | 24° |
| 2026-04-24 19:04 | 19.89729 | -156.21873 | 9175 ft | 290 kts | 23° |
| 2026-04-24 19:04 | 19.91558 | -156.20970 | 9785 ft | 291 kts | 23° |
| 2026-04-24 19:05 | 19.93403 | -156.20062 | 10321 ft | 294 kts | 23° |
| 2026-04-24 19:05 | 19.95315 | -156.19121 | 10461 ft | 312 kts | 23° |
| 2026-04-24 19:05 | 19.97343 | -156.18125 | 10582 ft | 330 kts | 23° |
| 2026-04-24 19:05 | 19.99484 | -156.17072 | 10698 ft | 346 kts | 23° |
| 2026-04-24 19:06 | 20.01721 | -156.15971 | 10817 ft | 362 kts | 23° |
| 2026-04-24 19:06 | 20.04055 | -156.14820 | 10935 ft | 377 kts | 23° |
| 2026-04-24 19:06 | 20.06468 | -156.13630 | 11215 ft | 385 kts | 23° |
| 2026-04-24 19:06 | 20.08911 | -156.12424 | 11669 ft | 388 kts | 23° |
| 2026-04-24 19:07 | 20.11334 | -156.11231 | 12185 ft | 390 kts | 22° |
| 2026-04-24 19:07 | 20.13802 | -156.10013 | 12720 ft | 392 kts | 23° |
| 2026-04-24 19:07 | 20.15476 | -156.09185 | 13091 ft | 393 kts | 23° |
| 2026-04-24 19:07 | 20.18767 | -156.07555 | 13781 ft | 395 kts | 22° |
| 2026-04-24 19:08 | 20.21267 | -156.06318 | 14245 ft | 398 kts | 22° |
| 2026-04-24 19:08 | 20.23787 | -156.05072 | 14692 ft | 400 kts | 23° |
| 2026-04-24 19:08 | 20.26323 | -156.03820 | 15123 ft | 403 kts | 23° |
| 2026-04-24 19:08 | 20.28879 | -156.02559 | 15565 ft | 406 kts | 23° |
| 2026-04-24 19:09 | 20.31455 | -156.01287 | 15993 ft | 409 kts | 23° |
| 2026-04-24 19:09 | 20.34044 | -156.00006 | 16421 ft | 412 kts | 23° |
| 2026-04-24 19:09 | 20.36657 | -155.98713 | 16826 ft | 415 kts | 23° |
| 2026-04-24 19:09 | 20.39293 | -155.97407 | 17228 ft | 418 kts | 23° |
| 2026-04-24 19:10 | 20.41933 | -155.96094 | 17623 ft | 421 kts | 23° |
| 2026-04-24 19:10 | 20.44594 | -155.94771 | 18002 ft | 423 kts | 23° |
| 2026-04-24 19:10 | 20.47273 | -155.93439 | 18379 ft | 426 kts | 23° |
| 2026-04-24 19:10 | 20.49972 | -155.92100 | 18691 ft | 429 kts | 23° |
| 2026-04-24 19:11 | 20.52685 | -155.90755 | 19016 ft | 431 kts | 24° |
| 2026-04-24 19:11 | 20.55411 | -155.89405 | 19341 ft | 433 kts | 24° |
| 2026-04-24 19:11 | 20.58151 | -155.88049 | 19674 ft | 435 kts | 24° |
| 2026-04-24 19:11 | 20.60907 | -155.86684 | 20004 ft | 437 kts | 24° |
| 2026-04-24 19:12 | 20.63636 | -155.85329 | 20315 ft | 439 kts | 24° |
| 2026-04-24 19:12 | 20.66453 | -155.83926 | 20630 ft | 442 kts | 24° |
| 2026-04-24 19:12 | 20.69241 | -155.82534 | 20944 ft | 444 kts | 24° |
| 2026-04-24 19:12 | 20.72047 | -155.81134 | 21262 ft | 446 kts | 24° |
| 2026-04-24 19:13 | 20.73909 | -155.80206 | 21478 ft | 447 kts | 24° |
| 2026-04-24 19:13 | 20.77693 | -155.78319 | 21904 ft | 450 kts | 24° |
| 2026-04-24 19:13 | 20.80537 | -155.76897 | 22215 ft | 452 kts | 24° |
| 2026-04-24 19:13 | 20.83394 | -155.75472 | 22523 ft | 454 kts | 24° |
| 2026-04-24 19:14 | 20.86266 | -155.74041 | 22818 ft | 457 kts | 24° |
| 2026-04-24 19:14 | 20.89152 | -155.72605 | 23124 ft | 459 kts | 24° |
| 2026-04-24 19:14 | 20.92056 | -155.71159 | 23404 ft | 461 kts | 24° |
| 2026-04-24 19:14 | 20.94970 | -155.69708 | 23685 ft | 463 kts | 24° |
| 2026-04-24 19:15 | 20.97897 | -155.68247 | 23927 ft | 465 kts | 24° |
| 2026-04-24 19:15 | 21.00835 | -155.66776 | 24182 ft | 467 kts | 24° |
| 2026-04-24 19:15 | 21.03785 | -155.65296 | 24446 ft | 469 kts | 24° |
| 2026-04-24 19:15 | 21.06745 | -155.63810 | 24711 ft | 471 kts | 24° |
| 2026-04-24 19:16 | 21.12651 | -155.60848 | 25240 ft | 473 kts | 24° |
| 2026-04-24 19:16 | 21.15637 | -155.59360 | 25590 ft | 472 kts | 24° |
| 2026-04-24 19:16 | 21.18610 | -155.57878 | 25983 ft | 470 kts | 24° |
| 2026-04-24 19:17 | 21.21572 | -155.56396 | 26373 ft | 469 kts | 24° |
| 2026-04-24 19:17 | 21.24522 | -155.54916 | 26757 ft | 467 kts | 24° |
| 2026-04-24 19:17 | 21.27460 | -155.53439 | 27140 ft | 465 kts | 25° |
| 2026-04-24 19:17 | 21.30387 | -155.51966 | 27520 ft | 464 kts | 25° |
| 2026-04-24 19:18 | 21.33305 | -155.50498 | 27903 ft | 462 kts | 25° |
| 2026-04-24 19:18 | 21.36213 | -155.49034 | 28278 ft | 461 kts | 25° |
| 2026-04-24 19:18 | 21.39119 | -155.47571 | 28647 ft | 460 kts | 25° |
| 2026-04-24 19:18 | 21.42012 | -155.46115 | 29002 ft | 459 kts | 25° |
| 2026-04-24 19:19 | 21.44901 | -155.44661 | 29354 ft | 458 kts | 26° |
| 2026-04-24 19:19 | 21.47786 | -155.43211 | 29702 ft | 457 kts | 26° |
| 2026-04-24 19:19 | 21.50665 | -155.41763 | 30049 ft | 457 kts | 26° |
| 2026-04-24 19:19 | 21.53541 | -155.40315 | 30355 ft | 456 kts | 26° |
| 2026-04-24 19:20 | 21.56414 | -155.38867 | 30633 ft | 455 kts | 26° |
| 2026-04-24 19:20 | 21.59277 | -155.37422 | 30891 ft | 455 kts | 26° |
| 2026-04-24 19:20 | 21.62148 | -155.35973 | 31080 ft | 456 kts | 26° |
| 2026-04-24 19:20 | 21.65023 | -155.34520 | 31141 ft | 457 kts | 26° |
| 2026-04-24 19:21 | 21.70774 | -155.31613 | 31137 ft | 456 kts | 26° |
| 2026-04-24 19:21 | 21.76526 | -155.28713 | 31133 ft | 456 kts | 26° |
| 2026-04-24 19:22 | 21.82274 | -155.25804 | 31139 ft | 456 kts | 26° |
| 2026-04-24 19:22 | 21.88014 | -155.22888 | 31139 ft | 456 kts | 26° |
| 2026-04-24 19:23 | 21.93756 | -155.19980 | 31138 ft | 456 kts | 26° |
| 2026-04-24 19:23 | 21.99500 | -155.17076 | 31141 ft | 456 kts | 26° |
| 2026-04-24 19:24 | 22.05241 | -155.14158 | 31143 ft | 456 kts | 26° |
| 2026-04-24 19:24 | 22.10946 | -155.11258 | 31147 ft | 455 kts | 26° |
| 2026-04-24 19:25 | 22.16676 | -155.08342 | 31149 ft | 455 kts | 26° |
| 2026-04-24 19:25 | 22.22401 | -155.05425 | 31154 ft | 455 kts | 26° |
| 2026-04-24 19:26 | 22.28138 | -155.02505 | 31156 ft | 455 kts | 26° |
| 2026-04-24 19:26 | 22.33852 | -154.99589 | 31158 ft | 454 kts | 26° |
| 2026-04-24 19:27 | 22.39570 | -154.96669 | 31161 ft | 454 kts | 26° |
| 2026-04-24 19:27 | 22.45281 | -154.93748 | 31161 ft | 454 kts | 26° |
| 2026-04-24 19:28 | 22.50988 | -154.90829 | 31161 ft | 453 kts | 26° |
| 2026-04-24 19:28 | 22.56652 | -154.87933 | 31162 ft | 453 kts | 26° |
| 2026-04-24 19:29 | 22.65202 | -154.83554 | 31166 ft | 453 kts | 26° |
| 2026-04-24 19:30 | 22.70902 | -154.80634 | 31164 ft | 453 kts | 26° |
| 2026-04-24 19:30 | 22.76589 | -154.77711 | 31163 ft | 452 kts | 26° |
| 2026-04-24 19:31 | 22.82273 | -154.74777 | 31164 ft | 452 kts | 26° |
| 2026-04-24 19:31 | 22.87941 | -154.71856 | 31161 ft | 451 kts | 26° |
| 2026-04-24 19:32 | 22.93617 | -154.68937 | 31167 ft | 451 kts | 26° |
| 2026-04-24 19:32 | 22.99070 | -154.65606 | 31166 ft | 450 kts | 39° |
| 2026-04-24 19:33 | 23.02680 | -154.61569 | 31162 ft | 449 kts | 54° |
| 2026-04-24 19:33 | 23.06138 | -154.55916 | 31159 ft | 450 kts | 56° |
| 2026-04-24 19:34 | 23.09607 | -154.50254 | 31158 ft | 450 kts | 56° |
| 2026-04-24 19:34 | 23.13073 | -154.44586 | 31161 ft | 450 kts | 56° |
| 2026-04-24 19:35 | 23.16531 | -154.38908 | 31163 ft | 451 kts | 56° |
| 2026-04-24 19:35 | 23.19985 | -154.33216 | 31167 ft | 451 kts | 56° |
| 2026-04-24 19:36 | 23.23430 | -154.27521 | 31168 ft | 451 kts | 56° |
| 2026-04-24 19:36 | 23.26861 | -154.21856 | 31167 ft | 451 kts | 56° |
| 2026-04-24 19:37 | 23.30309 | -154.16160 | 31166 ft | 451 kts | 56° |
| 2026-04-24 19:37 | 23.33755 | -154.10460 | 31163 ft | 450 kts | 56° |
| 2026-04-24 19:38 | 23.37193 | -154.04767 | 31157 ft | 450 kts | 56° |
| 2026-04-24 19:38 | 23.40629 | -153.99065 | 31154 ft | 450 kts | 55° |
| 2026-04-24 19:39 | 23.44072 | -153.93357 | 31158 ft | 451 kts | 56° |
| 2026-04-24 19:39 | 23.47515 | -153.87637 | 31157 ft | 451 kts | 56° |
| 2026-04-24 19:40 | 23.50955 | -153.81914 | 31157 ft | 452 kts | 55° |
| 2026-04-24 19:40 | 23.54405 | -153.76180 | 31158 ft | 452 kts | 55° |
| 2026-04-24 19:41 | 23.57827 | -153.70476 | 31161 ft | 452 kts | 55° |
| 2026-04-24 19:41 | 23.61268 | -153.64737 | 31161 ft | 452 kts | 55° |
| 2026-04-24 19:42 | 23.64709 | -153.58991 | 31150 ft | 453 kts | 55° |
| 2026-04-24 19:42 | 23.68145 | -153.53236 | 31151 ft | 453 kts | 55° |
| 2026-04-24 19:43 | 23.71578 | -153.47477 | 31158 ft | 453 kts | 55° |
| 2026-04-24 19:43 | 23.75019 | -153.41710 | 31155 ft | 453 kts | 55° |
| 2026-04-24 19:44 | 23.78465 | -153.35950 | 31151 ft | 453 kts | 55° |
| 2026-04-24 19:44 | 23.81909 | -153.30184 | 31146 ft | 453 kts | 55° |
| 2026-04-24 19:45 | 23.85361 | -153.24406 | 31147 ft | 454 kts | 55° |
| 2026-04-24 19:45 | 23.88817 | -153.18635 | 31152 ft | 454 kts | 55° |
| 2026-04-24 19:46 | 23.92269 | -153.12850 | 31149 ft | 454 kts | 55° |
| 2026-04-24 19:46 | 23.95700 | -153.07092 | 31145 ft | 454 kts | 55° |
| 2026-04-24 19:47 | 23.99151 | -153.01295 | 31140 ft | 455 kts | 55° |
| 2026-04-24 19:47 | 24.02608 | -152.95486 | 31135 ft | 456 kts | 55° |
| 2026-04-24 19:48 | 24.06066 | -152.89658 | 31136 ft | 457 kts | 55° |
| 2026-04-24 19:48 | 24.11266 | -152.80891 | 31138 ft | 458 kts | 55° |
| 2026-04-24 19:49 | 24.18211 | -152.69174 | 31147 ft | 459 kts | 55° |
| 2026-04-24 19:50 | 24.25121 | -152.57441 | 31155 ft | 460 kts | 55° |
| 2026-04-24 19:51 | 24.30329 | -152.48611 | 31157 ft | 460 kts | 55° |
| 2026-04-24 19:52 | 24.35538 | -152.39768 | 31154 ft | 460 kts | 55° |
| 2026-04-24 19:52 | 24.39006 | -152.33864 | 31153 ft | 460 kts | 55° |
| 2026-04-24 19:53 | 24.42469 | -152.27964 | 31152 ft | 460 kts | 55° |
| 2026-04-24 19:54 | 24.47663 | -152.19103 | 31154 ft | 460 kts | 55° |
| 2026-04-24 19:54 | 24.51123 | -152.13186 | 31157 ft | 461 kts | 55° |
| 2026-04-24 19:55 | 24.54020 | -152.08222 | 31159 ft | 461 kts | 56° |
| 2026-04-24 19:55 | 24.58041 | -152.01328 | 31161 ft | 461 kts | 56° |
| 2026-04-24 19:56 | 24.61505 | -151.95384 | 31163 ft | 461 kts | 55° |
| 2026-04-24 19:56 | 24.64976 | -151.89442 | 31164 ft | 462 kts | 55° |
| 2026-04-24 19:57 | 24.68434 | -151.83491 | 31166 ft | 462 kts | 56° |
| 2026-04-24 19:57 | 24.71861 | -151.77570 | 31168 ft | 462 kts | 56° |
| 2026-04-24 19:58 | 24.75312 | -151.71614 | 31167 ft | 462 kts | 56° |
| 2026-04-24 19:58 | 24.78764 | -151.65650 | 31162 ft | 462 kts | 56° |
| 2026-04-24 19:59 | 24.82215 | -151.59687 | 31162 ft | 462 kts | 55° |
| 2026-04-24 19:59 | 24.85668 | -151.53727 | 31162 ft | 461 kts | 56° |
| 2026-04-24 20:00 | 24.89104 | -151.47759 | 31162 ft | 461 kts | 56° |
| 2026-04-24 20:00 | 24.92540 | -151.41785 | 31166 ft | 461 kts | 55° |
| 2026-04-24 20:01 | 24.95984 | -151.35818 | 31161 ft | 461 kts | 56° |
| 2026-04-24 20:01 | 24.99419 | -151.29843 | 31162 ft | 461 kts | 56° |
| 2026-04-24 20:02 | 25.02270 | -151.24871 | 31160 ft | 461 kts | 56° |
| 2026-04-24 20:02 | 25.06269 | -151.17878 | 31160 ft | 461 kts | 56° |
| 2026-04-24 20:03 | 25.09694 | -151.11894 | 31161 ft | 461 kts | 56° |
| 2026-04-24 20:03 | 25.13116 | -151.05911 | 31156 ft | 461 kts | 56° |
| 2026-04-24 20:04 | 25.16541 | -150.99923 | 31160 ft | 461 kts | 56° |
| 2026-04-24 20:04 | 25.19931 | -150.93969 | 31166 ft | 461 kts | 56° |
| 2026-04-24 20:05 | 25.23349 | -150.87976 | 31160 ft | 461 kts | 56° |
| 2026-04-24 20:05 | 25.26770 | -150.81981 | 31164 ft | 461 kts | 56° |
| 2026-04-24 20:06 | 25.30183 | -150.75977 | 31164 ft | 461 kts | 56° |
| 2026-04-24 20:06 | 25.33594 | -150.69960 | 31163 ft | 461 kts | 56° |
| 2026-04-24 20:07 | 25.36425 | -150.64966 | 31163 ft | 461 kts | 56° |
| 2026-04-24 20:07 | 25.40416 | -150.57937 | 31162 ft | 461 kts | 56° |
| 2026-04-24 20:08 | 25.43816 | -150.51920 | 31163 ft | 461 kts | 56° |
| 2026-04-24 20:08 | 25.47214 | -150.45890 | 31165 ft | 461 kts | 56° |
| 2026-04-24 20:09 | 25.50607 | -150.39870 | 31165 ft | 461 kts | 56° |
| 2026-04-24 20:09 | 25.54001 | -150.33849 | 31165 ft | 461 kts | 56° |
| 2026-04-24 20:10 | 25.57394 | -150.27822 | 31167 ft | 461 kts | 56° |
| 2026-04-24 20:10 | 25.60753 | -150.21828 | 31163 ft | 461 kts | 56° |
| 2026-04-24 20:11 | 25.64138 | -150.15792 | 31160 ft | 461 kts | 56° |
| 2026-04-24 20:11 | 25.67522 | -150.09759 | 31158 ft | 460 kts | 56° |
| 2026-04-24 20:12 | 25.70902 | -150.03727 | 31166 ft | 460 kts | 56° |
| 2026-04-24 20:12 | 25.73709 | -149.98714 | 31164 ft | 460 kts | 56° |
| 2026-04-24 20:13 | 25.77644 | -149.91661 | 31157 ft | 460 kts | 56° |
| 2026-04-24 20:13 | 25.81003 | -149.85624 | 31157 ft | 459 kts | 56° |
| 2026-04-24 20:14 | 25.84364 | -149.79587 | 31155 ft | 460 kts | 56° |
| 2026-04-24 20:14 | 25.87724 | -149.73551 | 31161 ft | 459 kts | 56° |
| 2026-04-24 20:15 | 25.91054 | -149.67550 | 31163 ft | 459 kts | 56° |
| 2026-04-24 20:15 | 25.94406 | -149.61509 | 31167 ft | 459 kts | 56° |
| 2026-04-24 20:16 | 25.97754 | -149.55465 | 31164 ft | 459 kts | 56° |
| 2026-04-24 20:16 | 26.01104 | -149.49410 | 31167 ft | 459 kts | 56° |
| 2026-04-24 20:17 | 26.04442 | -149.43360 | 31165 ft | 459 kts | 56° |
| 2026-04-24 20:17 | 26.08896 | -149.35263 | 31162 ft | 459 kts | 56° |
| 2026-04-24 20:18 | 26.12231 | -149.29214 | 31160 ft | 459 kts | 56° |
| 2026-04-24 20:18 | 26.15564 | -149.23160 | 31166 ft | 458 kts | 56° |
| 2026-04-24 20:19 | 26.18886 | -149.17109 | 31163 ft | 458 kts | 56° |
| 2026-04-24 20:19 | 26.22205 | -149.11055 | 31166 ft | 458 kts | 56° |
| 2026-04-24 20:20 | 26.25516 | -149.05010 | 31167 ft | 457 kts | 56° |
| 2026-04-24 20:20 | 26.28805 | -148.99002 | 31169 ft | 457 kts | 56° |
| 2026-04-24 20:21 | 26.32104 | -148.92951 | 31169 ft | 456 kts | 56° |
| 2026-04-24 20:21 | 26.35405 | -148.86915 | 31166 ft | 456 kts | 56° |
| 2026-04-24 20:22 | 26.38696 | -148.80872 | 31170 ft | 456 kts | 56° |
| 2026-04-24 20:22 | 26.41979 | -148.74815 | 31169 ft | 456 kts | 56° |
| 2026-04-24 20:23 | 26.45272 | -148.68763 | 31172 ft | 456 kts | 56° |
| 2026-04-24 20:23 | 26.48557 | -148.62720 | 31170 ft | 455 kts | 56° |
| 2026-04-24 20:24 | 26.51838 | -148.56675 | 31173 ft | 455 kts | 56° |
| 2026-04-24 20:24 | 26.55113 | -148.50628 | 31169 ft | 455 kts | 56° |
| 2026-04-24 20:25 | 26.58381 | -148.44574 | 31164 ft | 455 kts | 56° |
| 2026-04-24 20:25 | 26.61645 | -148.38511 | 31168 ft | 455 kts | 56° |
| 2026-04-24 20:26 | 26.64909 | -148.32452 | 31168 ft | 454 kts | 56° |
| 2026-04-24 20:26 | 26.68166 | -148.26397 | 31170 ft | 454 kts | 56° |
| 2026-04-24 20:27 | 26.71410 | -148.20379 | 31170 ft | 454 kts | 56° |
| 2026-04-24 20:27 | 26.74658 | -148.14323 | 31171 ft | 454 kts | 56° |
| 2026-04-24 20:28 | 26.77903 | -148.08267 | 31174 ft | 454 kts | 56° |
| 2026-04-24 20:28 | 26.81144 | -148.02207 | 31173 ft | 454 kts | 56° |
| 2026-04-24 20:29 | 26.84387 | -147.96136 | 31173 ft | 454 kts | 56° |
| 2026-04-24 20:29 | 26.87630 | -147.90064 | 31175 ft | 454 kts | 56° |
| 2026-04-24 20:30 | 26.90873 | -147.83999 | 31181 ft | 454 kts | 56° |
| 2026-04-24 20:30 | 26.94105 | -147.77915 | 31180 ft | 454 kts | 56° |
| 2026-04-24 20:31 | 26.97325 | -147.71831 | 31181 ft | 454 kts | 56° |
| 2026-04-24 20:31 | 27.00557 | -147.65756 | 31180 ft | 453 kts | 56° |
| 2026-04-24 20:32 | 27.03766 | -147.59726 | 31182 ft | 453 kts | 56° |
| 2026-04-24 20:32 | 27.06990 | -147.53642 | 31180 ft | 453 kts | 56° |
| 2026-04-24 20:33 | 27.10201 | -147.47560 | 31180 ft | 453 kts | 56° |
| 2026-04-24 20:33 | 27.13404 | -147.41470 | 31182 ft | 453 kts | 56° |
| 2026-04-24 20:34 | 27.16620 | -147.35374 | 31183 ft | 453 kts | 56° |
| 2026-04-24 20:34 | 27.19831 | -147.29282 | 31186 ft | 453 kts | 56° |
| 2026-04-24 20:35 | 27.23038 | -147.23181 | 31192 ft | 454 kts | 56° |
| 2026-04-24 20:35 | 27.26024 | -147.16917 | 31191 ft | 456 kts | 60° |
| 2026-04-24 20:36 | 27.28741 | -147.10469 | 31186 ft | 456 kts | 61° |
| 2026-04-24 20:36 | 27.31415 | -147.04001 | 31179 ft | 456 kts | 60° |
| 2026-04-24 20:37 | 27.34155 | -146.97583 | 31181 ft | 455 kts | 60° |
| 2026-04-24 20:37 | 27.36912 | -146.91220 | 31180 ft | 455 kts | 60° |
| 2026-04-24 20:38 | 27.39674 | -146.84813 | 31188 ft | 455 kts | 60° |
| 2026-04-24 20:38 | 27.42424 | -146.78395 | 31189 ft | 455 kts | 60° |
| 2026-04-24 20:39 | 27.45173 | -146.71959 | 31191 ft | 456 kts | 60° |
| 2026-04-24 20:39 | 27.47915 | -146.65516 | 31183 ft | 456 kts | 60° |
| 2026-04-24 20:40 | 27.50662 | -146.59069 | 31190 ft | 457 kts | 60° |
| 2026-04-24 20:40 | 27.53410 | -146.52618 | 31199 ft | 457 kts | 60° |
| 2026-04-24 20:41 | 27.56152 | -146.46156 | 31203 ft | 457 kts | 60° |
| 2026-04-24 20:41 | 27.58896 | -146.39690 | 31195 ft | 457 kts | 60° |
| 2026-04-24 20:42 | 27.61640 | -146.33220 | 31207 ft | 457 kts | 60° |
| 2026-04-24 20:42 | 27.64370 | -146.26743 | 31201 ft | 457 kts | 60° |
| 2026-04-24 20:43 | 27.67091 | -146.20306 | 31203 ft | 457 kts | 60° |
| 2026-04-24 20:43 | 27.69826 | -146.13825 | 31202 ft | 457 kts | 60° |
| 2026-04-24 20:44 | 27.72554 | -146.07340 | 31205 ft | 457 kts | 60° |
| 2026-04-24 20:44 | 27.75276 | -146.00848 | 31205 ft | 458 kts | 60° |
| 2026-04-24 20:45 | 27.77998 | -145.94349 | 31205 ft | 458 kts | 60° |
| 2026-04-24 20:45 | 27.80726 | -145.87847 | 31204 ft | 458 kts | 60° |
| 2026-04-24 20:46 | 27.83456 | -145.81332 | 31206 ft | 458 kts | 60° |
| 2026-04-24 20:46 | 27.86171 | -145.74811 | 31211 ft | 459 kts | 60° |
| 2026-04-24 20:47 | 27.88888 | -145.68277 | 31208 ft | 459 kts | 60° |
| 2026-04-24 20:47 | 27.91612 | -145.61749 | 31211 ft | 459 kts | 60° |
| 2026-04-24 20:48 | 27.94310 | -145.55252 | 31208 ft | 459 kts | 60° |
| 2026-04-24 20:48 | 27.97025 | -145.48706 | 31205 ft | 460 kts | 60° |
| 2026-04-24 20:49 | 27.99737 | -145.42152 | 31205 ft | 460 kts | 60° |
| 2026-04-24 20:49 | 28.02452 | -145.35593 | 31211 ft | 460 kts | 60° |
| 2026-04-24 20:50 | 28.05168 | -145.29016 | 31209 ft | 461 kts | 60° |
| 2026-04-24 20:50 | 28.07881 | -145.22435 | 31216 ft | 461 kts | 60° |
| 2026-04-24 20:51 | 28.10574 | -145.15888 | 31209 ft | 461 kts | 60° |
| 2026-04-24 20:51 | 28.13278 | -145.09298 | 31210 ft | 461 kts | 60° |
| 2026-04-24 20:52 | 28.15978 | -145.02703 | 31212 ft | 461 kts | 60° |
| 2026-04-24 20:52 | 28.18677 | -144.96106 | 31207 ft | 461 kts | 60° |
| 2026-04-24 20:53 | 28.21373 | -144.89504 | 31209 ft | 462 kts | 60° |
| 2026-04-24 20:53 | 28.24068 | -144.82893 | 31213 ft | 462 kts | 60° |
| 2026-04-24 20:54 | 28.26763 | -144.76274 | 31217 ft | 462 kts | 60° |
| 2026-04-24 20:54 | 28.29475 | -144.69603 | 31213 ft | 463 kts | 60° |
| 2026-04-24 20:55 | 28.32148 | -144.63012 | 31213 ft | 463 kts | 60° |
| 2026-04-24 20:55 | 28.34845 | -144.56372 | 31218 ft | 463 kts | 60° |
| 2026-04-24 20:56 | 28.37532 | -144.49718 | 31215 ft | 464 kts | 60° |
| 2026-04-24 20:56 | 28.40222 | -144.43056 | 31216 ft | 464 kts | 60° |
| 2026-04-24 20:57 | 28.42915 | -144.36394 | 31218 ft | 464 kts | 60° |
| 2026-04-24 20:57 | 28.45595 | -144.29714 | 31221 ft | 465 kts | 60° |
| 2026-04-24 20:58 | 28.48266 | -144.23031 | 31219 ft | 465 kts | 60° |
| 2026-04-24 20:58 | 28.50945 | -144.16331 | 31224 ft | 465 kts | 60° |
| 2026-04-24 20:59 | 28.53178 | -144.10771 | 31222 ft | 465 kts | 60° |
| 2026-04-24 20:59 | 28.55864 | -144.04066 | 31226 ft | 466 kts | 60° |
| 2026-04-24 21:00 | 28.58548 | -143.97351 | 31224 ft | 466 kts | 60° |
| 2026-04-24 21:00 | 28.61233 | -143.90628 | 31222 ft | 467 kts | 61° |
| 2026-04-24 21:01 | 28.63900 | -143.83891 | 31224 ft | 467 kts | 61° |
| 2026-04-24 21:01 | 28.66575 | -143.77143 | 31226 ft | 468 kts | 61° |
| 2026-04-24 21:02 | 28.69249 | -143.70378 | 31227 ft | 468 kts | 61° |
| 2026-04-24 21:02 | 28.71910 | -143.63659 | 31230 ft | 468 kts | 61° |
| 2026-04-24 21:03 | 28.74589 | -143.56892 | 31228 ft | 469 kts | 61° |
| 2026-04-24 21:03 | 28.77265 | -143.50121 | 31225 ft | 469 kts | 61° |
| 2026-04-24 21:04 | 28.79930 | -143.43320 | 31226 ft | 469 kts | 61° |
| 2026-04-24 21:04 | 28.82590 | -143.36525 | 31231 ft | 470 kts | 61° |
| 2026-04-24 21:05 | 28.85258 | -143.29724 | 31233 ft | 470 kts | 61° |
| 2026-04-24 21:05 | 28.87926 | -143.22916 | 31232 ft | 470 kts | 61° |
| 2026-04-24 21:06 | 28.90592 | -143.16100 | 31232 ft | 470 kts | 61° |
| 2026-04-24 21:06 | 28.93256 | -143.09276 | 31235 ft | 471 kts | 61° |
| 2026-04-24 21:07 | 28.95895 | -143.02487 | 31232 ft | 471 kts | 61° |
| 2026-04-24 21:07 | 28.97218 | -142.99076 | 31589 ft | 467 kts | 61° |
| 2026-04-24 21:07 | 28.98528 | -142.95695 | 32080 ft | 463 kts | 61° |
| 2026-04-24 21:08 | 28.99824 | -142.92343 | 32488 ft | 461 kts | 61° |
| 2026-04-24 21:08 | 29.01117 | -142.88999 | 32872 ft | 459 kts | 61° |
| 2026-04-24 21:08 | 29.02406 | -142.85673 | 33166 ft | 458 kts | 61° |
| 2026-04-24 21:08 | 29.03696 | -142.82348 | 33209 ft | 457 kts | 61° |
| 2026-04-24 21:09 | 29.06267 | -142.75711 | 33217 ft | 456 kts | 61° |
| 2026-04-24 21:09 | 29.08833 | -142.69049 | 33216 ft | 461 kts | 61° |
| 2026-04-24 21:10 | 29.11423 | -142.62323 | 33212 ft | 462 kts | 61° |
| 2026-04-24 21:10 | 29.14004 | -142.55592 | 33214 ft | 462 kts | 61° |
| 2026-04-24 21:11 | 29.16585 | -142.48855 | 33224 ft | 462 kts | 61° |
| 2026-04-24 21:11 | 29.19151 | -142.42162 | 33229 ft | 462 kts | 61° |
| 2026-04-24 21:12 | 29.21736 | -142.35416 | 33229 ft | 463 kts | 61° |
| 2026-04-24 21:12 | 29.24313 | -142.28665 | 33234 ft | 463 kts | 61° |
| 2026-04-24 21:13 | 29.26885 | -142.21915 | 33234 ft | 463 kts | 61° |
| 2026-04-24 21:13 | 29.29456 | -142.15162 | 33233 ft | 463 kts | 61° |
| 2026-04-24 21:14 | 29.32022 | -142.08401 | 33235 ft | 462 kts | 61° |
| 2026-04-24 21:14 | 29.34577 | -142.01630 | 33235 ft | 463 kts | 61° |
| 2026-04-24 21:15 | 29.37136 | -141.94863 | 33237 ft | 462 kts | 61° |
| 2026-04-24 21:15 | 29.39693 | -141.88092 | 33237 ft | 463 kts | 61° |
| 2026-04-24 21:16 | 29.42253 | -141.81322 | 33235 ft | 463 kts | 61° |
| 2026-04-24 21:16 | 29.44804 | -141.74533 | 33235 ft | 463 kts | 61° |
| 2026-04-24 21:17 | 29.47344 | -141.67739 | 33234 ft | 463 kts | 61° |
| 2026-04-24 21:17 | 29.49872 | -141.60993 | 33239 ft | 463 kts | 61° |
| 2026-04-24 21:18 | 29.52422 | -141.54191 | 33237 ft | 464 kts | 61° |
| 2026-04-24 21:18 | 29.54962 | -141.47380 | 33238 ft | 464 kts | 61° |
| 2026-04-24 21:19 | 29.57496 | -141.40566 | 33234 ft | 463 kts | 61° |
| 2026-04-24 21:19 | 29.60029 | -141.33751 | 33235 ft | 464 kts | 61° |
| 2026-04-24 21:20 | 29.63828 | -141.23514 | 33238 ft | 464 kts | 61° |
| 2026-04-24 21:21 | 29.66353 | -141.16692 | 33241 ft | 464 kts | 61° |
| 2026-04-24 21:21 | 29.68855 | -141.09909 | 33242 ft | 464 kts | 61° |
| 2026-04-24 21:22 | 29.71373 | -141.03076 | 33238 ft | 464 kts | 61° |
| 2026-04-24 21:22 | 29.73889 | -140.96234 | 33237 ft | 464 kts | 61° |
| 2026-04-24 21:23 | 29.76410 | -140.89395 | 33239 ft | 464 kts | 61° |
| 2026-04-24 21:23 | 29.78923 | -140.82552 | 33232 ft | 464 kts | 61° |
| 2026-04-24 21:24 | 29.81424 | -140.75700 | 33233 ft | 464 kts | 61° |
| 2026-04-24 21:24 | 29.83926 | -140.68839 | 33235 ft | 465 kts | 61° |
| 2026-04-24 21:25 | 29.86429 | -140.61978 | 33236 ft | 465 kts | 61° |
| 2026-04-24 21:25 | 29.88930 | -140.55110 | 33236 ft | 465 kts | 61° |
| 2026-04-24 21:26 | 29.91429 | -140.48229 | 33233 ft | 465 kts | 61° |
| 2026-04-24 21:26 | 29.93906 | -140.41391 | 33236 ft | 465 kts | 61° |
| 2026-04-24 21:27 | 29.96350 | -140.34478 | 33234 ft | 467 kts | 63° |
| 2026-04-24 21:27 | 29.98641 | -140.27463 | 33235 ft | 468 kts | 64° |
| 2026-04-24 21:28 | 30.00892 | -140.20412 | 33244 ft | 469 kts | 63° |
| 2026-04-24 21:28 | 30.03183 | -140.13379 | 33240 ft | 468 kts | 63° |
| 2026-04-24 21:29 | 30.05501 | -140.06343 | 33243 ft | 468 kts | 63° |
| 2026-04-24 21:29 | 30.07805 | -139.99311 | 33247 ft | 468 kts | 63° |
| 2026-04-24 21:30 | 30.10098 | -139.92264 | 33245 ft | 469 kts | 63° |
| 2026-04-24 21:30 | 30.12383 | -139.85209 | 33242 ft | 469 kts | 63° |
| 2026-04-24 21:31 | 30.14667 | -139.78145 | 33239 ft | 469 kts | 63° |
| 2026-04-24 21:31 | 30.16946 | -139.71080 | 33238 ft | 469 kts | 63° |
| 2026-04-24 21:32 | 30.19209 | -139.64064 | 33222 ft | 469 kts | 63° |
| 2026-04-24 21:32 | 30.21499 | -139.56996 | 33224 ft | 470 kts | 63° |
| 2026-04-24 21:33 | 30.23781 | -139.49911 | 33230 ft | 471 kts | 63° |
| 2026-04-24 21:33 | 30.26053 | -139.42807 | 33232 ft | 471 kts | 63° |
| 2026-04-24 21:34 | 30.28326 | -139.35697 | 33233 ft | 472 kts | 63° |
| 2026-04-24 21:34 | 30.30599 | -139.28569 | 33232 ft | 472 kts | 63° |
| 2026-04-24 21:35 | 30.32864 | -139.21440 | 33232 ft | 472 kts | 63° |
| 2026-04-24 21:35 | 30.35121 | -139.14354 | 33226 ft | 472 kts | 63° |
| 2026-04-24 21:36 | 30.37393 | -139.07208 | 33226 ft | 473 kts | 63° |
| 2026-04-24 21:36 | 30.39660 | -139.00049 | 33220 ft | 474 kts | 62° |
| 2026-04-24 21:37 | 30.41924 | -138.92877 | 33226 ft | 475 kts | 63° |
| 2026-04-24 21:37 | 30.44187 | -138.85682 | 33222 ft | 476 kts | 62° |
| 2026-04-24 21:38 | 30.46460 | -138.78471 | 33228 ft | 477 kts | 62° |
| 2026-04-24 21:38 | 30.48736 | -138.71232 | 33230 ft | 477 kts | 62° |
| 2026-04-24 21:39 | 30.50984 | -138.64034 | 33225 ft | 478 kts | 63° |
| 2026-04-24 21:39 | 30.53244 | -138.56766 | 33221 ft | 479 kts | 63° |
| 2026-04-24 21:40 | 30.55520 | -138.49477 | 33213 ft | 480 kts | 63° |
| 2026-04-24 21:40 | 30.57796 | -138.42181 | 33208 ft | 481 kts | 63° |
| 2026-04-24 21:41 | 30.60067 | -138.34854 | 33204 ft | 483 kts | 63° |
| 2026-04-24 21:41 | 30.62339 | -138.27507 | 33205 ft | 484 kts | 63° |
| 2026-04-24 21:42 | 30.64612 | -138.20137 | 33201 ft | 486 kts | 64° |
| 2026-04-24 21:42 | 30.66889 | -138.12741 | 33197 ft | 487 kts | 64° |
| 2026-04-24 21:43 | 30.69175 | -138.05315 | 33205 ft | 489 kts | 64° |
| 2026-04-24 21:43 | 30.71443 | -137.97922 | 33207 ft | 490 kts | 64° |
| 2026-04-24 21:44 | 30.73734 | -137.90440 | 33217 ft | 491 kts | 65° |
| 2026-04-24 21:44 | 30.76019 | -137.82933 | 33221 ft | 493 kts | 65° |
| 2026-04-24 21:45 | 30.78309 | -137.75413 | 33221 ft | 494 kts | 65° |
| 2026-04-24 21:45 | 30.80604 | -137.67872 | 33226 ft | 495 kts | 65° |
| 2026-04-24 21:46 | 30.82901 | -137.60312 | 33235 ft | 496 kts | 66° |
| 2026-04-24 21:46 | 30.85195 | -137.52735 | 33235 ft | 497 kts | 66° |
| 2026-04-24 21:47 | 30.87486 | -137.45143 | 33232 ft | 498 kts | 66° |
| 2026-04-24 21:47 | 30.89774 | -137.37531 | 33229 ft | 499 kts | 67° |
| 2026-04-24 21:48 | 30.91692 | -137.31143 | 33224 ft | 499 kts | 67° |
| 2026-04-24 21:48 | 30.93965 | -137.23551 | 33233 ft | 500 kts | 67° |
| 2026-04-24 21:49 | 30.96252 | -137.15893 | 33228 ft | 500 kts | 68° |
| 2026-04-24 21:49 | 30.98534 | -137.08232 | 33226 ft | 501 kts | 68° |
| 2026-04-24 21:50 | 31.00815 | -137.00551 | 33225 ft | 501 kts | 68° |
| 2026-04-24 21:50 | 31.03098 | -136.92868 | 33221 ft | 502 kts | 69° |
| 2026-04-24 21:51 | 31.05376 | -136.85178 | 33222 ft | 502 kts | 69° |
| 2026-04-24 21:51 | 31.07645 | -136.77475 | 33219 ft | 502 kts | 69° |
| 2026-04-24 21:52 | 31.09914 | -136.69768 | 33215 ft | 502 kts | 69° |
| 2026-04-24 21:52 | 31.12174 | -136.62095 | 33207 ft | 503 kts | 69° |
| 2026-04-24 21:53 | 31.14451 | -136.54315 | 33208 ft | 503 kts | 70° |
| 2026-04-24 21:53 | 31.16691 | -136.46622 | 33220 ft | 504 kts | 70° |
| 2026-04-24 21:54 | 31.18942 | -136.38874 | 33212 ft | 504 kts | 70° |
| 2026-04-24 21:54 | 31.21201 | -136.31110 | 33209 ft | 505 kts | 70° |
| 2026-04-24 21:55 | 31.23456 | -136.23344 | 33210 ft | 505 kts | 71° |
| 2026-04-24 21:55 | 31.25715 | -136.15567 | 33215 ft | 505 kts | 71° |
| 2026-04-24 21:56 | 31.27961 | -136.07780 | 33213 ft | 506 kts | 71° |
| 2026-04-24 21:56 | 31.30201 | -135.99974 | 33210 ft | 506 kts | 71° |
| 2026-04-24 21:57 | 31.32442 | -135.92174 | 33209 ft | 506 kts | 72° |
| 2026-04-24 21:57 | 31.34677 | -135.84362 | 33204 ft | 506 kts | 72° |
| 2026-04-24 21:58 | 31.36907 | -135.76541 | 33203 ft | 507 kts | 72° |
| 2026-04-24 21:58 | 31.39134 | -135.68718 | 33203 ft | 507 kts | 72° |
| 2026-04-24 21:59 | 31.41364 | -135.60885 | 33199 ft | 507 kts | 72° |
| 2026-04-24 21:59 | 31.43584 | -135.53042 | 33198 ft | 508 kts | 72° |
| 2026-04-24 22:00 | 31.45808 | -135.45178 | 33200 ft | 508 kts | 72° |
| 2026-04-24 22:00 | 31.48020 | -135.37361 | 33201 ft | 509 kts | 73° |
| 2026-04-24 22:01 | 31.50233 | -135.29482 | 33193 ft | 509 kts | 73° |
| 2026-04-24 22:01 | 31.52435 | -135.21605 | 33193 ft | 509 kts | 73° |
| 2026-04-24 22:02 | 31.54648 | -135.13700 | 33192 ft | 510 kts | 73° |
| 2026-04-24 22:02 | 31.56856 | -135.05793 | 33190 ft | 511 kts | 74° |
| 2026-04-24 22:03 | 31.59058 | -134.97863 | 33186 ft | 512 kts | 74° |
| 2026-04-24 22:03 | 31.61259 | -134.89912 | 33199 ft | 513 kts | 74° |
| 2026-04-24 22:04 | 31.63466 | -134.81946 | 33196 ft | 514 kts | 74° |
| 2026-04-24 22:04 | 31.65674 | -134.73950 | 33190 ft | 515 kts | 75° |
| 2026-04-24 22:05 | 31.67885 | -134.65937 | 33189 ft | 516 kts | 75° |
| 2026-04-24 22:05 | 31.70093 | -134.57901 | 33186 ft | 518 kts | 75° |
| 2026-04-24 22:06 | 31.72287 | -134.49838 | 33180 ft | 519 kts | 75° |
| 2026-04-24 22:06 | 31.74484 | -134.41757 | 33176 ft | 520 kts | 75° |
| 2026-04-24 22:07 | 31.76689 | -134.33665 | 33180 ft | 520 kts | 76° |
| 2026-04-24 22:07 | 31.78892 | -134.25551 | 33176 ft | 521 kts | 76° |
| 2026-04-24 22:08 | 31.81095 | -134.17422 | 33177 ft | 522 kts | 76° |
| 2026-04-24 22:08 | 31.83295 | -134.09269 | 33177 ft | 523 kts | 76° |
| 2026-04-24 22:09 | 31.85480 | -134.01159 | 33177 ft | 524 kts | 76° |
| 2026-04-24 22:09 | 31.87679 | -133.92981 | 33170 ft | 525 kts | 76° |
| 2026-04-24 22:10 | 31.89870 | -133.84775 | 33171 ft | 526 kts | 76° |
| 2026-04-24 22:10 | 31.92061 | -133.76556 | 33168 ft | 527 kts | 77° |
| 2026-04-24 22:11 | 31.94252 | -133.68316 | 33169 ft | 528 kts | 77° |
| 2026-04-24 22:11 | 31.96438 | -133.60068 | 33167 ft | 528 kts | 77° |
| 2026-04-24 22:12 | 31.98625 | -133.51797 | 33170 ft | 529 kts | 77° |
| 2026-04-24 22:12 | 32.00808 | -133.43508 | 33169 ft | 529 kts | 77° |
| 2026-04-24 22:13 | 32.02988 | -133.35222 | 33165 ft | 530 kts | 77° |
| 2026-04-24 22:13 | 32.05157 | -133.26922 | 33166 ft | 530 kts | 77° |
| 2026-04-24 22:14 | 32.07327 | -133.18608 | 33165 ft | 531 kts | 77° |
| 2026-04-24 22:14 | 32.09505 | -133.10274 | 33165 ft | 531 kts | 76° |
| 2026-04-24 22:15 | 32.11675 | -133.01929 | 33176 ft | 532 kts | 76° |
| 2026-04-24 22:15 | 32.13819 | -132.93642 | 33173 ft | 532 kts | 76° |
| 2026-04-24 22:16 | 32.15977 | -132.85296 | 33176 ft | 532 kts | 75° |
| 2026-04-24 22:16 | 32.19068 | -132.77326 | 33170 ft | 536 kts | 63° |
| 2026-04-24 22:17 | 32.22543 | -132.69530 | 33165 ft | 536 kts | 64° |
| 2026-04-24 22:17 | 32.25989 | -132.61713 | 33161 ft | 537 kts | 64° |
| 2026-04-24 22:18 | 32.29437 | -132.53881 | 33169 ft | 537 kts | 64° |
| 2026-04-24 22:18 | 32.32889 | -132.46046 | 33175 ft | 537 kts | 63° |
| 2026-04-24 22:19 | 32.36355 | -132.38212 | 33178 ft | 537 kts | 63° |
| 2026-04-24 22:19 | 32.39813 | -132.30357 | 33179 ft | 537 kts | 63° |
| 2026-04-24 22:20 | 32.43252 | -132.22505 | 33177 ft | 537 kts | 63° |
| 2026-04-24 22:20 | 32.46680 | -132.14648 | 33175 ft | 537 kts | 63° |
| 2026-04-24 22:21 | 32.50099 | -132.06791 | 33174 ft | 536 kts | 63° |
| 2026-04-24 22:21 | 32.53518 | -131.98932 | 33170 ft | 536 kts | 63° |
| 2026-04-24 22:22 | 32.56912 | -131.91110 | 33174 ft | 536 kts | 63° |
| 2026-04-24 22:22 | 32.60322 | -131.83248 | 33174 ft | 536 kts | 63° |
| 2026-04-24 22:23 | 32.63736 | -131.75375 | 33180 ft | 536 kts | 63° |
| 2026-04-24 22:23 | 32.67140 | -131.67494 | 33182 ft | 536 kts | 63° |
| 2026-04-24 22:24 | 32.70525 | -131.59608 | 33181 ft | 536 kts | 63° |
| 2026-04-24 22:24 | 32.73907 | -131.51725 | 33186 ft | 535 kts | 63° |
| 2026-04-24 22:25 | 32.77284 | -131.43843 | 33181 ft | 535 kts | 63° |
| 2026-04-24 22:25 | 32.80656 | -131.35964 | 33178 ft | 535 kts | 63° |
| 2026-04-24 22:26 | 32.84020 | -131.28078 | 33179 ft | 535 kts | 63° |
| 2026-04-24 22:26 | 32.87377 | -131.20190 | 33175 ft | 535 kts | 63° |
| 2026-04-24 22:27 | 32.90729 | -131.12295 | 33178 ft | 535 kts | 63° |
| 2026-04-24 22:27 | 32.94079 | -131.04384 | 33174 ft | 535 kts | 63° |
| 2026-04-24 22:28 | 32.97430 | -130.96478 | 33182 ft | 534 kts | 63° |
| 2026-04-24 22:28 | 33.00769 | -130.88565 | 33178 ft | 534 kts | 64° |
| 2026-04-24 22:29 | 33.05167 | -130.78087 | 33148 ft | 530 kts | 64° |
| 2026-04-24 22:29 | 33.09010 | -130.68935 | 33161 ft | 531 kts | 64° |
| 2026-04-24 22:30 | 33.12323 | -130.61050 | 33161 ft | 531 kts | 64° |
| 2026-04-24 22:30 | 33.15087 | -130.54433 | 33166 ft | 531 kts | 64° |
| 2026-04-24 22:31 | 33.18378 | -130.46537 | 33167 ft | 532 kts | 64° |
| 2026-04-24 22:31 | 33.21642 | -130.38677 | 33164 ft | 532 kts | 64° |
| 2026-04-24 22:32 | 33.24924 | -130.30755 | 33173 ft | 532 kts | 64° |
| 2026-04-24 22:32 | 33.28204 | -130.22829 | 33166 ft | 532 kts | 64° |
| 2026-04-24 22:33 | 33.31485 | -130.14893 | 33171 ft | 532 kts | 64° |
| 2026-04-24 22:33 | 33.34761 | -130.06950 | 33166 ft | 532 kts | 64° |
| 2026-04-24 22:34 | 33.38027 | -129.99009 | 33171 ft | 532 kts | 64° |
| 2026-04-24 22:34 | 33.41288 | -129.91058 | 33172 ft | 532 kts | 64° |
| 2026-04-24 22:35 | 33.44544 | -129.83103 | 33172 ft | 532 kts | 64° |
| 2026-04-24 22:35 | 33.47799 | -129.75145 | 33175 ft | 532 kts | 64° |
| 2026-04-24 22:36 | 33.51033 | -129.67187 | 33171 ft | 531 kts | 64° |
| 2026-04-24 22:36 | 33.54264 | -129.59234 | 33175 ft | 531 kts | 64° |
| 2026-04-24 22:37 | 33.57492 | -129.51275 | 33176 ft | 530 kts | 64° |
| 2026-04-24 22:37 | 33.60695 | -129.43368 | 33175 ft | 530 kts | 64° |
| 2026-04-24 22:38 | 33.63925 | -129.35360 | 33173 ft | 529 kts | 64° |
| 2026-04-24 22:38 | 33.67107 | -129.27459 | 33173 ft | 529 kts | 64° |
| 2026-04-24 22:39 | 33.70307 | -129.19504 | 33171 ft | 529 kts | 64° |
| 2026-04-24 22:39 | 33.73498 | -129.11549 | 33168 ft | 528 kts | 64° |
| 2026-04-24 22:40 | 33.76669 | -129.03591 | 33168 ft | 528 kts | 64° |
| 2026-04-24 22:40 | 33.79851 | -128.95622 | 33162 ft | 528 kts | 64° |
| 2026-04-24 22:41 | 33.83027 | -128.87661 | 33162 ft | 528 kts | 64° |
| 2026-04-24 22:41 | 33.85844 | -128.79520 | 33155 ft | 527 kts | 76° |
| 2026-04-24 22:42 | 33.86886 | -128.70865 | 33152 ft | 521 kts | 91° |
| 2026-04-24 22:42 | 33.87111 | -128.62129 | 33146 ft | 522 kts | 91° |
| 2026-04-24 22:43 | 33.87353 | -128.53400 | 33151 ft | 522 kts | 91° |
| 2026-04-24 22:43 | 33.87594 | -128.44664 | 33150 ft | 522 kts | 91° |
| 2026-04-24 22:44 | 33.87819 | -128.35932 | 33152 ft | 522 kts | 91° |
| 2026-04-24 22:44 | 33.88042 | -128.27192 | 33153 ft | 522 kts | 91° |
| 2026-04-24 22:45 | 33.88243 | -128.18453 | 33158 ft | 522 kts | 91° |
| 2026-04-24 22:45 | 33.88439 | -128.09784 | 33155 ft | 521 kts | 91° |
| 2026-04-24 22:46 | 33.88641 | -128.01000 | 33153 ft | 521 kts | 91° |
| 2026-04-24 22:46 | 33.88835 | -127.92346 | 33150 ft | 521 kts | 91° |
| 2026-04-24 22:47 | 33.89018 | -127.83623 | 33154 ft | 521 kts | 91° |
| 2026-04-24 22:47 | 33.89201 | -127.74908 | 33152 ft | 521 kts | 91° |
| 2026-04-24 22:48 | 33.89379 | -127.66188 | 33155 ft | 521 kts | 91° |
| 2026-04-24 22:48 | 33.89541 | -127.57473 | 33155 ft | 521 kts | 91° |
| 2026-04-24 22:49 | 33.89700 | -127.48764 | 33151 ft | 520 kts | 91° |
| 2026-04-24 22:49 | 33.89859 | -127.40056 | 33150 ft | 520 kts | 91° |
| 2026-04-24 22:50 | 33.90004 | -127.31363 | 33143 ft | 519 kts | 91° |
| 2026-04-24 22:50 | 33.90145 | -127.22677 | 33141 ft | 519 kts | 91° |
| 2026-04-24 22:51 | 33.90281 | -127.13979 | 33141 ft | 519 kts | 91° |
| 2026-04-24 22:51 | 33.90413 | -127.05292 | 33129 ft | 519 kts | 91° |
| 2026-04-24 22:52 | 33.90540 | -126.96608 | 33136 ft | 519 kts | 91° |
| 2026-04-24 22:52 | 33.90655 | -126.87919 | 33139 ft | 519 kts | 91° |
| 2026-04-24 22:53 | 33.90765 | -126.79227 | 33138 ft | 519 kts | 91° |
| 2026-04-24 22:53 | 33.90868 | -126.70546 | 33130 ft | 519 kts | 91° |
| 2026-04-24 22:54 | 33.90970 | -126.61918 | 33139 ft | 519 kts | 91° |
| 2026-04-24 22:54 | 33.91064 | -126.53236 | 33123 ft | 519 kts | 91° |
| 2026-04-24 22:55 | 33.91157 | -126.44550 | 33126 ft | 518 kts | 91° |
| 2026-04-24 22:55 | 33.91236 | -126.35871 | 33134 ft | 518 kts | 92° |
| 2026-04-24 22:56 | 33.91310 | -126.27192 | 33134 ft | 518 kts | 92° |
| 2026-04-24 22:56 | 33.91377 | -126.18612 | 33114 ft | 505 kts | 91° |
| 2026-04-24 22:57 | 33.91432 | -126.10194 | 33108 ft | 502 kts | 91° |
| 2026-04-24 22:57 | 33.91478 | -126.01793 | 33107 ft | 502 kts | 91° |
| 2026-04-24 22:58 | 33.91523 | -125.93436 | 33107 ft | 503 kts | 91° |
| 2026-04-24 22:58 | 33.91577 | -125.85011 | 33109 ft | 503 kts | 91° |
| 2026-04-24 22:59 | 33.91614 | -125.76589 | 33105 ft | 503 kts | 92° |
| 2026-04-24 23:00 | 33.91661 | -125.63939 | 33108 ft | 504 kts | 92° |
| 2026-04-24 23:00 | 33.91685 | -125.55559 | 33101 ft | 504 kts | 92° |
| 2026-04-24 23:01 | 33.91701 | -125.47118 | 33101 ft | 505 kts | 92° |
| 2026-04-24 23:01 | 33.91714 | -125.38610 | 33104 ft | 505 kts | 92° |
| 2026-04-24 23:02 | 33.91722 | -125.30206 | 33102 ft | 505 kts | 92° |
| 2026-04-24 23:02 | 33.91721 | -125.21749 | 33097 ft | 506 kts | 92° |
| 2026-04-24 23:03 | 33.91710 | -125.13281 | 33092 ft | 506 kts | 92° |
| 2026-04-24 23:03 | 33.91697 | -125.04804 | 33087 ft | 506 kts | 92° |
| 2026-04-24 23:04 | 33.91684 | -124.96323 | 33089 ft | 507 kts | 92° |
| 2026-04-24 23:04 | 33.92398 | -124.87882 | 33095 ft | 509 kts | 77° |
| 2026-04-24 23:05 | 33.93987 | -124.79566 | 33095 ft | 510 kts | 77° |
| 2026-04-24 23:05 | 33.95566 | -124.71240 | 33096 ft | 510 kts | 78° |
| 2026-04-24 23:06 | 33.97130 | -124.62900 | 33100 ft | 510 kts | 78° |
| 2026-04-24 23:06 | 33.98688 | -124.54563 | 33104 ft | 510 kts | 78° |
| 2026-04-24 23:07 | 34.00242 | -124.46232 | 33099 ft | 510 kts | 78° |
| 2026-04-24 23:07 | 34.01789 | -124.37898 | 33100 ft | 510 kts | 78° |
| 2026-04-24 23:08 | 34.03325 | -124.29554 | 33098 ft | 509 kts | 78° |
| 2026-04-24 23:08 | 34.04845 | -124.21276 | 33094 ft | 509 kts | 78° |
| 2026-04-24 23:09 | 34.06377 | -124.12938 | 33095 ft | 509 kts | 78° |
| 2026-04-24 23:09 | 34.07898 | -124.04588 | 33091 ft | 509 kts | 78° |
| 2026-04-24 23:10 | 34.09415 | -123.96247 | 33090 ft | 509 kts | 78° |
| 2026-04-24 23:10 | 34.10929 | -123.87896 | 33087 ft | 509 kts | 78° |
| 2026-04-24 23:11 | 34.12439 | -123.79549 | 33084 ft | 509 kts | 78° |
| 2026-04-24 23:11 | 34.13937 | -123.71188 | 33082 ft | 509 kts | 78° |
| 2026-04-24 23:12 | 34.15422 | -123.62876 | 33082 ft | 510 kts | 78° |
| 2026-04-24 23:12 | 34.16910 | -123.54511 | 33076 ft | 510 kts | 78° |
| 2026-04-24 23:13 | 34.18401 | -123.46134 | 33071 ft | 510 kts | 78° |
| 2026-04-24 23:13 | 34.19886 | -123.37749 | 33071 ft | 510 kts | 78° |
| 2026-04-24 23:14 | 34.21360 | -123.29362 | 33067 ft | 511 kts | 78° |
| 2026-04-24 23:14 | 34.22826 | -123.20972 | 33062 ft | 511 kts | 78° |
| 2026-04-24 23:15 | 34.24287 | -123.12566 | 33059 ft | 511 kts | 79° |
| 2026-04-24 23:15 | 34.24758 | -123.05480 | 33049 ft | 508 kts | 94° |
| 2026-04-24 23:16 | 34.24377 | -122.96947 | 33044 ft | 509 kts | 95° |
| 2026-04-24 23:16 | 34.23994 | -122.88398 | 33043 ft | 509 kts | 95° |
| 2026-04-24 23:17 | 34.23610 | -122.79849 | 33039 ft | 510 kts | 95° |
| 2026-04-24 23:17 | 34.23216 | -122.71288 | 33040 ft | 511 kts | 95° |
| 2026-04-24 23:18 | 34.22812 | -122.62716 | 33037 ft | 511 kts | 95° |
| 2026-04-24 23:18 | 34.22415 | -122.54136 | 33041 ft | 512 kts | 95° |
| 2026-04-24 23:19 | 34.22009 | -122.45551 | 33037 ft | 512 kts | 95° |
| 2026-04-24 23:19 | 34.21588 | -122.36957 | 33042 ft | 513 kts | 96° |
| 2026-04-24 23:20 | 34.21157 | -122.28402 | 33041 ft | 513 kts | 96° |
| 2026-04-24 23:20 | 34.20718 | -122.19795 | 33041 ft | 513 kts | 96° |
| 2026-04-24 23:21 | 34.20284 | -122.11177 | 33040 ft | 513 kts | 96° |
| 2026-04-24 23:21 | 34.19847 | -122.02565 | 33039 ft | 514 kts | 96° |
| 2026-04-24 23:22 | 34.19397 | -121.93950 | 33037 ft | 514 kts | 96° |
| 2026-04-24 23:22 | 34.18938 | -121.85326 | 33077 ft | 519 kts | 97° |
| 2026-04-24 23:23 | 34.18463 | -121.76542 | 33027 ft | 527 kts | 97° |
| 2026-04-24 23:23 | 34.17992 | -121.67696 | 33027 ft | 528 kts | 96° |
| 2026-04-24 23:24 | 34.17510 | -121.58894 | 33021 ft | 528 kts | 97° |
| 2026-04-24 23:24 | 34.17014 | -121.50038 | 33019 ft | 528 kts | 97° |
| 2026-04-24 23:25 | 34.16504 | -121.41185 | 33016 ft | 529 kts | 97° |
| 2026-04-24 23:25 | 34.15996 | -121.32330 | 33005 ft | 529 kts | 97° |
| 2026-04-24 23:26 | 34.15484 | -121.23471 | 33006 ft | 529 kts | 97° |
| 2026-04-24 23:26 | 34.14969 | -121.14601 | 33016 ft | 530 kts | 97° |
| 2026-04-24 23:27 | 34.14443 | -121.05723 | 33016 ft | 530 kts | 97° |
| 2026-04-24 23:27 | 34.13907 | -120.96859 | 33007 ft | 530 kts | 97° |
| 2026-04-24 23:28 | 34.13318 | -120.88044 | 33010 ft | 530 kts | 98° |
| 2026-04-24 23:28 | 34.12654 | -120.79173 | 33010 ft | 530 kts | 98° |
| 2026-04-24 23:29 | 34.11985 | -120.70297 | 33011 ft | 531 kts | 98° |
| 2026-04-24 23:29 | 34.11330 | -120.61420 | 33010 ft | 531 kts | 98° |
| 2026-04-24 23:30 | 34.10677 | -120.52539 | 33000 ft | 531 kts | 98° |
| 2026-04-24 23:30 | 34.10018 | -120.43651 | 33000 ft | 532 kts | 98° |
| 2026-04-24 23:31 | 34.09351 | -120.34770 | 32997 ft | 532 kts | 98° |
| 2026-04-24 23:31 | 34.08669 | -120.25877 | 32994 ft | 532 kts | 98° |
| 2026-04-24 23:32 | 34.07983 | -120.16984 | 32990 ft | 532 kts | 98° |
| 2026-04-24 23:32 | 34.07301 | -120.08092 | 32982 ft | 532 kts | 98° |
| 2026-04-24 23:33 | 34.06618 | -119.99255 | 32979 ft | 532 kts | 98° |
| 2026-04-24 23:33 | 34.05914 | -119.90369 | 32976 ft | 533 kts | 98° |
| 2026-04-24 23:34 | 34.05198 | -119.81481 | 32950 ft | 533 kts | 98° |
| 2026-04-24 23:34 | 34.04480 | -119.72581 | 32952 ft | 533 kts | 98° |
| 2026-04-24 23:35 | 34.03754 | -119.63683 | 32960 ft | 533 kts | 98° |
| 2026-04-24 23:35 | 34.03025 | -119.54782 | 32960 ft | 534 kts | 98° |
| 2026-04-24 23:36 | 34.02289 | -119.45877 | 32963 ft | 534 kts | 98° |
| 2026-04-24 23:36 | 34.01549 | -119.36969 | 32964 ft | 534 kts | 98° |
| 2026-04-24 23:37 | 34.00800 | -119.28054 | 32969 ft | 534 kts | 99° |
| 2026-04-24 23:37 | 33.99661 | -119.14688 | 32968 ft | 535 kts | 99° |
| 2026-04-24 23:38 | 33.98894 | -119.05825 | 32970 ft | 535 kts | 99° |
| 2026-04-24 23:38 | 33.98118 | -118.96903 | 32968 ft | 535 kts | 99° |
| 2026-04-24 23:39 | 33.97339 | -118.87981 | 32965 ft | 536 kts | 99° |
| 2026-04-24 23:39 | 33.96551 | -118.79057 | 32962 ft | 536 kts | 99° |
| 2026-04-24 23:40 | 33.95757 | -118.70134 | 32966 ft | 536 kts | 99° |
| 2026-04-24 23:40 | 33.94956 | -118.61198 | 32966 ft | 536 kts | 99° |
| 2026-04-24 23:41 | 33.94153 | -118.52268 | 32969 ft | 536 kts | 99° |
| 2026-04-24 23:41 | 33.93337 | -118.43339 | 32968 ft | 537 kts | 99° |
| 2026-04-24 23:42 | 33.92577 | -118.34397 | 32970 ft | 537 kts | 98° |
| 2026-04-24 23:42 | 33.91884 | -118.25451 | 32971 ft | 537 kts | 98° |
| 2026-04-24 23:43 | 33.91187 | -118.16495 | 32973 ft | 537 kts | 98° |
| 2026-04-24 23:43 | 33.90462 | -118.07614 | 32960 ft | 537 kts | 98° |
| 2026-04-24 23:44 | 33.89712 | -117.98664 | 32960 ft | 537 kts | 98° |
| 2026-04-24 23:44 | 33.88966 | -117.89728 | 32958 ft | 537 kts | 98° |
| 2026-04-24 23:45 | 33.88217 | -117.80782 | 32958 ft | 537 kts | 98° |
| 2026-04-24 23:45 | 33.87459 | -117.71839 | 32939 ft | 537 kts | 98° |
| 2026-04-24 23:46 | 33.86695 | -117.62900 | 32937 ft | 537 kts | 98° |
| 2026-04-24 23:46 | 33.85927 | -117.53957 | 32934 ft | 537 kts | 98° |
| 2026-04-24 23:47 | 33.85148 | -117.45025 | 32921 ft | 537 kts | 98° |
| 2026-04-24 23:47 | 33.84370 | -117.36092 | 32915 ft | 537 kts | 98° |
| 2026-04-24 23:48 | 33.83581 | -117.27157 | 32918 ft | 537 kts | 99° |
| 2026-04-24 23:48 | 33.82784 | -117.18231 | 32916 ft | 537 kts | 99° |
| 2026-04-24 23:49 | 33.81978 | -117.09304 | 32943 ft | 537 kts | 99° |
| 2026-04-24 23:49 | 33.81172 | -117.00382 | 32942 ft | 536 kts | 99° |
| 2026-04-24 23:50 | 33.80358 | -116.91468 | 32937 ft | 537 kts | 99° |
| 2026-04-24 23:50 | 33.79533 | -116.82551 | 32923 ft | 536 kts | 99° |
| 2026-04-24 23:51 | 33.78701 | -116.73644 | 32832 ft | 536 kts | 99° |
| 2026-04-24 23:51 | 33.77874 | -116.64798 | 32809 ft | 535 kts | 99° |
| 2026-04-24 23:52 | 33.77039 | -116.55904 | 32805 ft | 535 kts | 99° |
| 2026-04-24 23:52 | 33.76197 | -116.47023 | 32797 ft | 535 kts | 99° |
| 2026-04-24 23:53 | 33.75339 | -116.38075 | 32796 ft | 535 kts | 99° |
| 2026-04-24 23:53 | 33.74485 | -116.29190 | 32800 ft | 535 kts | 99° |
| 2026-04-24 23:54 | 33.73631 | -116.20358 | 32813 ft | 535 kts | 99° |
| 2026-04-24 23:54 | 33.72751 | -116.11422 | 32829 ft | 535 kts | 99° |
| 2026-04-24 23:55 | 33.71884 | -116.02603 | 32837 ft | 535 kts | 99° |
| 2026-04-24 23:55 | 33.71064 | -115.93721 | 32834 ft | 535 kts | 98° |
| 2026-04-24 23:56 | 33.70261 | -115.84846 | 32824 ft | 535 kts | 99° |
| 2026-04-24 23:56 | 33.69433 | -115.75969 | 32821 ft | 535 kts | 99° |
| 2026-04-24 23:57 | 33.68593 | -115.67082 | 32808 ft | 535 kts | 99° |
| 2026-04-24 23:57 | 33.67749 | -115.58218 | 32809 ft | 535 kts | 99° |
| 2026-04-24 23:58 | 33.66899 | -115.49348 | 32828 ft | 535 kts | 99° |
| 2026-04-24 23:58 | 33.66042 | -115.40476 | 32814 ft | 535 kts | 99° |
| 2026-04-24 23:59 | 33.65174 | -115.31609 | 32796 ft | 535 kts | 99° |
| 2026-04-24 23:59 | 33.64291 | -115.22723 | 32800 ft | 536 kts | 99° |
| 2026-04-25 00:00 | 33.63418 | -115.13835 | 32800 ft | 536 kts | 99° |
| 2026-04-25 00:00 | 33.62686 | -115.06454 | 32792 ft | 536 kts | 99° |
| 2026-04-25 00:01 | 33.61795 | -114.97578 | 32793 ft | 536 kts | 99° |
| 2026-04-25 00:01 | 33.60895 | -114.88698 | 32799 ft | 536 kts | 99° |
| 2026-04-25 00:02 | 33.59992 | -114.79825 | 32786 ft | 536 kts | 99° |
| 2026-04-25 00:02 | 33.58638 | -114.71073 | 32776 ft | 533 kts | 106° |
| 2026-04-25 00:03 | 33.56953 | -114.62418 | 32769 ft | 533 kts | 106° |
| 2026-04-25 00:03 | 33.55277 | -114.53770 | 32775 ft | 533 kts | 106° |
| 2026-04-25 00:04 | 33.53586 | -114.45120 | 32767 ft | 533 kts | 107° |
| 2026-04-25 00:04 | 33.51883 | -114.36477 | 32790 ft | 533 kts | 107° |
| 2026-04-25 00:05 | 33.50177 | -114.27834 | 32798 ft | 533 kts | 107° |
| 2026-04-25 00:05 | 33.48473 | -114.19195 | 32793 ft | 533 kts | 107° |
| 2026-04-25 00:06 | 33.46754 | -114.10559 | 32796 ft | 533 kts | 107° |
| 2026-04-25 00:06 | 33.45028 | -114.01920 | 32799 ft | 533 kts | 107° |
| 2026-04-25 00:07 | 33.43302 | -113.93337 | 32822 ft | 534 kts | 107° |
| 2026-04-25 00:07 | 33.41564 | -113.84695 | 32836 ft | 534 kts | 107° |
| 2026-04-25 00:08 | 33.39824 | -113.76063 | 32853 ft | 534 kts | 107° |
| 2026-04-25 00:08 | 33.38081 | -113.67429 | 32862 ft | 534 kts | 107° |
| 2026-04-25 00:09 | 33.37203 | -113.63108 | 32452 ft | 536 kts | 107° |